| time (UTC) | temp F | wind direction | speed MPH | gust MPH | rain 1hr in | rain 24hr in | rain mn in | humidity % | barometer mb |
| 20260502164037 | 64 | 348 | 14.0 | 0.0 | 0.00 | 0.00 | 0.00 | 32 | 1014.8 |
| 20260502163537 | 65 | 355 | 14.0 | 0.0 | 0.00 | 0.00 | 0.00 | 33 | 1014.8 |
| 20260502163043 | 65 | 348 | 14.0 | 0.0 | 0.00 | 0.00 | 0.00 | 33 | 1014.8 |
| 20260502162035 | 65 | 335 | 14.0 | 0.0 | 0.00 | 0.00 | 0.00 | 36 | 1014.7 |
| 20260502161535 | 64 | 313 | 13.0 | 0.0 | 0.00 | 0.00 | 0.00 | 35 | 1014.6 |
| 20260502161034 | 64 | 319 | 14.0 | 0.0 | 0.00 | 0.00 | 0.00 | 38 | 1014.7 |
| 20260502160537 | 63 | 323 | 15.0 | 0.0 | 0.00 | 0.00 | 0.00 | 37 | 1014.6 |
| 20260502152030 | 61 | 313 | 10.0 | 0.0 | 0.00 | 0.00 | 0.00 | 41 | 1014.6 |
| 20260502151528 | 60 | 332 | 10.0 | 0.0 | 0.00 | 0.00 | 0.00 | 41 | 1014.5 |
| 20260502151026 | 60 | 332 | 8.0 | 0.0 | 0.00 | 0.00 | 0.00 | 42 | 1014.4 |
| 20260502150526 | 60 | 297 | 8.0 | 0.0 | 0.00 | 0.00 | 0.00 | 42 | 1014.4 |
| 20260502130509 | 50 | 257 | 2.0 | 0.0 | 0.00 | 0.00 | 0.00 | 55 | 1014.3 |
| 20260502123508 | 48 | 302 | 2.0 | 0.0 | 0.00 | 0.00 | 0.00 | 55 | 1014.2 |
| 20260502123007 | 48 | 302 | 2.0 | 0.0 | 0.00 | 0.00 | 0.00 | 54 | 1014.2 |
| 20260502122008 | 48 | 274 | 4.0 | 0.0 | 0.00 | 0.00 | 0.00 | 53 | 1014.2 |
| 20260502121508 | 49 | 290 | 6.0 | 0.0 | 0.00 | 0.00 | 0.00 | 52 | 1014.0 |
| 20260502121008 | 49 | 322 | 8.0 | 0.0 | 0.00 | 0.00 | 0.00 | 51 | 1014.0 |
| 20260502120508 | 49 | 325 | 7.0 | 0.0 | 0.00 | 0.00 | 0.00 | 51 | 1014.0 |
| 20260502115505 | 48 | 313 | 4.0 | 0.0 | 0.00 | 0.00 | 0.00 | 51 | 1013.9 |
| 20260502115004 | 49 | 325 | 4.0 | 0.0 | 0.00 | 0.00 | 0.00 | 50 | 1013.9 |
| 20260502114504 | 49 | 292 | 4.0 | 0.0 | 0.00 | 0.00 | 0.00 | 49 | 1013.8 |
| 20260502114003 | 50 | 320 | 5.0 | 0.0 | 0.00 | 0.00 | 0.00 | 48 | 1013.7 |
| 20260502113505 | 51 | 311 | 6.0 | 0.0 | 0.00 | 0.00 | 0.00 | 46 | 1013.7 |
| 20260502113004 | 51 | 289 | 8.0 | 0.0 | 0.00 | 0.00 | 0.00 | 45 | 1013.5 |
| 20260502112002 | 52 | 276 | 9.0 | 0.0 | 0.00 | 0.00 | 0.00 | 44 | 1013.5 |
| 20260502111505 | 52 | 249 | 8.0 | 0.0 | 0.00 | 0.00 | 0.00 | 44 | 1013.5 |
| 20260502111002 | 52 | 259 | 9.0 | 0.0 | 0.00 | 0.00 | 0.00 | 43 | 1013.5 |
| 20260502110502 | 53 | 271 | 10.0 | 0.0 | 0.00 | 0.00 | 0.00 | 43 | 1013.5 |
| 20260502110004 | 53 | 239 | 12.0 | 0.0 | 0.00 | 0.00 | 0.00 | 43 | 1013.3 |
| 20260502105505 | 53 | 229 | 11.0 | 0.0 | 0.00 | 0.00 | 0.00 | 43 | 1013.3 |
| 20260502105002 | 52 | 243 | 11.0 | 0.0 | 0.00 | 0.00 | 0.00 | 44 | 1013.3 |
| 20260502104502 | 51 | 263 | 10.0 | 0.0 | 0.00 | 0.00 | 0.00 | 45 | 1013.4 |
| 20260502104001 | 51 | 238 | 10.0 | 0.0 | 0.00 | 0.00 | 0.00 | 46 | 1013.5 |
| 20260502103602 | 51 | 246 | 11.0 | 0.0 | 0.00 | 0.00 | 0.00 | 46 | 1013.6 |
| 20260502103101 | 50 | 235 | 9.0 | 0.0 | 0.00 | 0.00 | 0.00 | 46 | 1013.5 |
| 20260502102701 | 50 | 232 | 6.0 | 0.0 | 0.00 | 0.00 | 0.00 | 47 | 1013.7 |
| 20260502102059 | 49 | 259 | 5.0 | 0.0 | 0.00 | 0.00 | 0.00 | 46 | 1013.7 |
| 20260502101557 | 50 | 248 | 5.0 | 0.0 | 0.00 | 0.00 | 0.00 | 45 | 1013.9 |
| 20260502101056 | 51 | 280 | 6.0 | 0.0 | 0.00 | 0.00 | 0.00 | 44 | 1014.1 |
| 20260502100556 | 51 | 321 | 9.0 | 0.0 | 0.00 | 0.00 | 0.00 | 42 | 1014.0 |
| 20260502091050 | 52 | 186 | 7.0 | 0.0 | 0.00 | 0.00 | 0.00 | 39 | 1013.5 |
| 20260502090548 | 52 | 182 | 7.0 | 0.0 | 0.00 | 0.00 | 0.00 | 39 | 1013.5 |
| 20260502071036 | 51 | 190 | 9.0 | 0.0 | 0.00 | 0.00 | 0.00 | 37 | 1014.5 |
| 20260502070539 | 51 | 166 | 8.0 | 0.0 | 0.00 | 0.00 | 0.00 | 37 | 1014.5 |
| 20260502070037 | 51 | 186 | 9.0 | 0.0 | 0.00 | 0.00 | 0.00 | 36 | 1014.5 |
| 20260502065537 | 51 | 171 | 9.0 | 0.0 | 0.00 | 0.00 | 0.00 | 36 | 1014.5 |
| 20260502065034 | 51 | 161 | 10.0 | 0.0 | 0.00 | 0.00 | 0.00 | 36 | 1014.7 |
| 20260502064535 | 51 | 171 | 10.0 | 0.0 | 0.00 | 0.00 | 0.00 | 36 | 1014.7 |
| 20260502064034 | 51 | 182 | 10.0 | 0.0 | 0.00 | 0.00 | 0.00 | 36 | 1014.8 |
| 20260502063537 | 51 | 184 | 11.0 | 0.0 | 0.00 | 0.00 | 0.00 | 35 | 1014.8 |
| 20260502063033 | 51 | 173 | 10.0 | 0.0 | 0.00 | 0.00 | 0.00 | 35 | 1014.9 |
| 20260502062633 | 51 | 170 | 10.0 | 0.0 | 0.00 | 0.00 | 0.00 | 35 | 1014.9 |
| 20260502062032 | 51 | 173 | 9.0 | 0.0 | 0.00 | 0.00 | 0.00 | 36 | 1015.0 |
| 20260502061531 | 51 | 178 | 9.0 | 0.0 | 0.00 | 0.00 | 0.00 | 35 | 1015.0 |
| 20260502061030 | 51 | 190 | 9.0 | 0.0 | 0.00 | 0.00 | 0.00 | 35 | 1015.1 |
| 20260502060530 | 51 | 150 | 9.0 | 0.0 | 0.00 | 0.00 | 0.00 | 35 | 1015.2 |
| 20260502060030 | 50 | 173 | 7.0 | 0.0 | 0.00 | 0.00 | 0.00 | 36 | 1015.3 |
| 20260502055529 | 48 | 139 | 5.0 | 0.0 | 0.00 | 0.00 | 0.00 | 38 | 1015.3 |
| 20260502055033 | 48 | 135 | 5.0 | 0.0 | 0.00 | 0.00 | 0.00 | 38 | 1015.4 |
| 20260502054528 | 48 | 134 | 5.0 | 0.0 | 0.00 | 0.00 | 0.00 | 39 | 1015.5 |
| 20260502054028 | 47 | 132 | 5.0 | 0.0 | 0.00 | 0.00 | 0.00 | 39 | 1015.5 |
| 20260502053527 | 47 | 140 | 5.0 | 0.0 | 0.00 | 0.00 | 0.00 | 39 | 1015.6 |
| 20260502053027 | 47 | 136 | 5.0 | 0.0 | 0.00 | 0.00 | 0.00 | 39 | 1015.6 |
| 20260502052631 | 48 | 148 | 6.0 | 0.0 | 0.00 | 0.00 | 0.00 | 38 | 1015.7 |
| 20260502052027 | 48 | 153 | 6.0 | 0.0 | 0.00 | 0.00 | 0.00 | 38 | 1015.7 |
| 20260502051530 | 49 | 148 | 6.0 | 0.0 | 0.00 | 0.00 | 0.00 | 37 | 1015.8 |
| 20260502051026 | 48 | 157 | 5.0 | 0.0 | 0.00 | 0.00 | 0.00 | 39 | 1015.9 |
| 20260502050529 | 47 | 161 | 4.0 | 0.0 | 0.00 | 0.00 | 0.00 | 39 | 1016.0 |
| 20260502050035 | 47 | 177 | 4.0 | 0.0 | 0.00 | 0.00 | 0.00 | 39 | 1016.0 |
| 20260502045526 | 47 | 166 | 4.0 | 0.0 | 0.00 | 0.00 | 0.00 | 39 | 1016.0 |
| 20260502045031 | 47 | 182 | 4.0 | 0.0 | 0.00 | 0.00 | 0.00 | 41 | 1016.0 |
| 20260502044525 | 46 | 144 | 3.0 | 0.0 | 0.00 | 0.00 | 0.00 | 40 | 1016.1 |
| 20260502044026 | 46 | 142 | 4.0 | 0.0 | 0.00 | 0.00 | 0.00 | 41 | 1016.2 |
| 20260502043524 | 46 | 148 | 5.0 | 0.0 | 0.00 | 0.00 | 0.00 | 41 | 1016.2 |
| 20260502043024 | 46 | 153 | 5.0 | 0.0 | 0.00 | 0.00 | 0.00 | 42 | 1016.3 |
| 20260502042624 | 45 | 158 | 3.0 | 0.0 | 0.00 | 0.00 | 0.00 | 44 | 1016.4 |
| 20260502042024 | 45 | 166 | 2.0 | 0.0 | 0.00 | 0.00 | 0.00 | 44 | 1016.4 |
| 20260502041529 | 44 | 139 | 1.0 | 0.0 | 0.00 | 0.00 | 0.00 | 43 | 1016.4 |
| 20260502041021 | 44 | 138 | 2.0 | 0.0 | 0.00 | 0.00 | 0.00 | 43 | 1016.5 |
| 20260502040521 | 44 | 138 | 2.0 | 0.0 | 0.00 | 0.00 | 0.00 | 42 | 1016.5 |
| 20260502040020 | 45 | 138 | 3.0 | 0.0 | 0.00 | 0.00 | 0.00 | 42 | 1016.7 |
| 20260502035520 | 45 | 138 | 4.0 | 0.0 | 0.00 | 0.00 | 0.00 | 41 | 1016.7 |
| 20260502035020 | 45 | 148 | 5.0 | 0.0 | 0.00 | 0.00 | 0.00 | 41 | 1016.7 |
| 20260502034520 | 46 | 145 | 5.0 | 0.0 | 0.00 | 0.00 | 0.00 | 41 | 1016.8 |
| 20260502034019 | 46 | 135 | 5.0 | 0.0 | 0.00 | 0.00 | 0.00 | 41 | 1016.8 |
| 20260502033518 | 45 | 146 | 5.0 | 0.0 | 0.00 | 0.00 | 0.00 | 40 | 1016.8 |
| 20260502033022 | 45 | 136 | 5.0 | 0.0 | 0.00 | 0.00 | 0.00 | 41 | 1016.9 |
| 20260502032619 | 45 | 122 | 5.0 | 0.0 | 0.00 | 0.00 | 0.00 | 41 | 1016.9 |
| 20260502032019 | 45 | 122 | 4.0 | 0.0 | 0.00 | 0.00 | 0.00 | 41 | 1017.0 |
| 20260502031519 | 45 | 122 | 4.0 | 0.0 | 0.00 | 0.00 | 0.00 | 40 | 1017.0 |
| 20260502031019 | 45 | 122 | 4.0 | 0.0 | 0.00 | 0.00 | 0.00 | 40 | 1017.0 |
| 20260502030519 | 46 | 122 | 3.0 | 0.0 | 0.00 | 0.00 | 0.00 | 39 | 1017.0 |
| 20260502030019 | 46 | 122 | 3.0 | 0.0 | 0.00 | 0.00 | 0.00 | 39 | 1017.0 |
| 20260502025518 | 46 | 122 | 4.0 | 0.0 | 0.00 | 0.00 | 0.00 | 38 | 1017.1 |
| 20260502025019 | 47 | 122 | 3.0 | 0.0 | 0.00 | 0.00 | 0.00 | 37 | 1017.0 |
| 20260502024519 | 47 | 122 | 2.0 | 0.0 | 0.00 | 0.00 | 0.00 | 36 | 1017.0 |
| 20260502024019 | 48 | 122 | 2.0 | 0.0 | 0.00 | 0.00 | 0.00 | 36 | 1017.0 |
| 20260502023520 | 48 | 122 | 2.0 | 0.0 | 0.00 | 0.00 | 0.00 | 35 | 1017.0 |
| 20260502023019 | 49 | 122 | 2.0 | 0.0 | 0.00 | 0.00 | 0.00 | 35 | 1017.0 |
| 20260502022620 | 50 | 143 | 2.0 | 0.0 | 0.00 | 0.00 | 0.00 | 34 | 1017.0 |
| 20260502022022 | 51 | 203 | 2.0 | 0.0 | 0.00 | 0.00 | 0.00 | 34 | 1017.0 |
| 20260502021520 | 52 | 203 | 2.0 | 0.0 | 0.00 | 0.00 | 0.00 | 32 | 1016.9 |
| 20260502021021 | 54 | 203 | 2.0 | 0.0 | 0.00 | 0.00 | 0.00 | 30 | 1016.9 |
| 20260502020520 | 55 | 203 | 1.0 | 0.0 | 0.00 | 0.00 | 0.00 | 29 | 1016.9 |
| 20260502020018 | 57 | 203 | 1.0 | 0.0 | 0.00 | 0.00 | 0.00 | 28 | 1017.0 |
| 20260502015518 | 58 | 203 | 1.0 | 0.0 | 0.00 | 0.00 | 0.00 | 26 | 1016.9 |
| 20260502015022 | 59 | 203 | 2.0 | 0.0 | 0.00 | 0.00 | 0.00 | 25 | 1016.9 |
| 20260502014525 | 60 | 203 | 3.0 | 0.0 | 0.00 | 0.00 | 0.00 | 25 | 1016.9 |
| 20260502014017 | 61 | 203 | 3.0 | 0.0 | 0.00 | 0.00 | 0.00 | 24 | 1017.0 |
| 20260502013516 | 62 | 203 | 4.0 | 0.0 | 0.00 | 0.00 | 0.00 | 23 | 1017.0 |
| 20260502013016 | 63 | 213 | 6.0 | 0.0 | 0.00 | 0.00 | 0.00 | 22 | 1017.1 |
| 20260502012617 | 64 | 213 | 7.0 | 0.0 | 0.00 | 0.00 | 0.00 | 21 | 1017.1 |
| 20260502012016 | 64 | 215 | 7.0 | 0.0 | 0.00 | 0.00 | 0.00 | 21 | 1017.1 |
| 20260502011516 | 65 | 196 | 7.0 | 0.0 | 0.00 | 0.00 | 0.00 | 20 | 1017.1 |
| 20260502011015 | 65 | 217 | 8.0 | 0.0 | 0.00 | 0.00 | 0.00 | 20 | 1017.1 |
| 20260502010514 | 66 | 206 | 9.0 | 0.0 | 0.00 | 0.00 | 0.00 | 19 | 1017.2 |
| 20260502010020 | 66 | 188 | 8.0 | 0.0 | 0.00 | 0.00 | 0.00 | 19 | 1017.3 |
| 20260502005514 | 66 | 215 | 7.0 | 0.0 | 0.00 | 0.00 | 0.00 | 19 | 1017.4 |
| 20260502005013 | 67 | 200 | 7.0 | 0.0 | 0.00 | 0.00 | 0.00 | 19 | 1017.3 |
| 20260502004513 | 67 | 190 | 8.0 | 0.0 | 0.00 | 0.00 | 0.00 | 19 | 1017.4 |
| 20260502004013 | 67 | 217 | 8.0 | 0.0 | 0.00 | 0.00 | 0.00 | 18 | 1017.4 |
| 20260502003513 | 67 | 241 | 9.0 | 0.0 | 0.00 | 0.00 | 0.00 | 18 | 1017.4 |
| 20260502003012 | 67 | 222 | 9.0 | 0.0 | 0.00 | 0.00 | 0.00 | 18 | 1017.5 |
| 20260502002612 | 67 | 227 | 10.0 | 0.0 | 0.00 | 0.00 | 0.00 | 18 | 1017.6 |
| 20260502002014 | 67 | 232 | 9.0 | 0.0 | 0.00 | 0.00 | 0.00 | 17 | 1017.6 |
| 20260502001512 | 68 | 239 | 9.0 | 0.0 | 0.00 | 0.00 | 0.00 | 17 | 1017.6 |
| 20260502001011 | 68 | 245 | 7.0 | 0.0 | 0.00 | 0.00 | 0.00 | 17 | 1017.6 |
| 20260502000510 | 68 | 201 | 7.0 | 0.0 | 0.00 | 0.00 | 0.00 | 17 | 1017.7 |
| 20260502000010 | 68 | 197 | 8.0 | 0.0 | 0.00 | 0.00 | 0.00 | 17 | 1017.7 |
| 20260501235509 | 68 | 227 | 9.0 | 0.0 | 0.00 | 0.00 | 0.00 | 16 | 1017.7 |
| 20260501235009 | 68 | 209 | 7.0 | 0.0 | 0.00 | 0.00 | 0.00 | 17 | 1017.7 |
| 20260501234509 | 68 | 202 | 5.0 | 0.0 | 0.00 | 0.00 | 0.00 | 17 | 1017.7 |
| 20260501234009 | 68 | 238 | 5.0 | 0.0 | 0.00 | 0.00 | 0.00 | 17 | 1017.7 |
| 20260501233509 | 68 | 169 | 7.0 | 0.0 | 0.00 | 0.00 | 0.00 | 16 | 1017.7 |
| 20260501233008 | 68 | 201 | 9.0 | 0.0 | 0.00 | 0.00 | 0.00 | 17 | 1017.9 |
| 20260501232608 | 68 | 151 | 10.0 | 0.0 | 0.00 | 0.00 | 0.00 | 18 | 1017.8 |
| 20260501232007 | 68 | 242 | 9.0 | 0.0 | 0.00 | 0.00 | 0.00 | 18 | 1017.8 |
| 20260501231506 | 68 | 222 | 8.0 | 0.0 | 0.00 | 0.00 | 0.00 | 17 | 1017.9 |
| 20260501231005 | 68 | 188 | 7.0 | 0.0 | 0.00 | 0.00 | 0.00 | 17 | 1017.9 |
| 20260501230506 | 68 | 181 | 7.0 | 0.0 | 0.00 | 0.00 | 0.00 | 18 | 1018.0 |
| 20260501230004 | 68 | 185 | 9.0 | 0.0 | 0.00 | 0.00 | 0.00 | 19 | 1018.0 |
| 20260501225504 | 68 | 203 | 9.0 | 0.0 | 0.00 | 0.00 | 0.00 | 18 | 1018.0 |
| 20260501225003 | 68 | 226 | 6.0 | 0.0 | 0.00 | 0.00 | 0.00 | 18 | 1018.1 |
| 20260501224502 | 68 | 161 | 4.0 | 0.0 | 0.00 | 0.00 | 0.00 | 17 | 1018.1 |
| 20260501224002 | 67 | 229 | 8.0 | 0.0 | 0.00 | 0.00 | 0.00 | 17 | 1018.2 |
| 20260501223501 | 67 | 210 | 10.0 | 0.0 | 0.00 | 0.00 | 0.00 | 18 | 1018.3 |
| 20260501223142 | 68 | 232 | 7.0 | 0.0 | 0.00 | 0.00 | 0.00 | 19 | 1018.3 |
| 20260501223001 | 68 | 234 | 7.0 | 0.0 | 0.00 | 0.00 | 0.00 | 18 | 1018.3 |
| 20260501222600 | 68 | 245 | 6.0 | 0.0 | 0.00 | 0.00 | 0.00 | 19 | 1018.4 |
| 20260501222100 | 68 | 195 | 7.0 | 0.0 | 0.00 | 0.00 | 0.00 | 18 | 1018.4 |
| 20260501221559 | 68 | 198 | 6.0 | 0.0 | 0.00 | 0.00 | 0.00 | 17 | 1018.5 |
| 20260501221059 | 68 | 200 | 5.0 | 0.0 | 0.00 | 0.00 | 0.00 | 19 | 1018.5 |
| 20260501220559 | 67 | 173 | 6.0 | 0.0 | 0.00 | 0.00 | 0.00 | 18 | 1018.6 |
| 20260501220057 | 67 | 108 | 7.0 | 0.0 | 0.00 | 0.00 | 0.00 | 19 | 1018.7 |
| 20260501215556 | 68 | 147 | 7.0 | 0.0 | 0.00 | 0.00 | 0.00 | 19 | 1018.8 |
| 20260501215059 | 67 | 205 | 5.0 | 0.0 | 0.00 | 0.00 | 0.00 | 20 | 1018.9 |
| 20260501214556 | 67 | 233 | 6.0 | 0.0 | 0.00 | 0.00 | 0.00 | 19 | 1018.9 |
| 20260501214054 | 67 | 190 | 7.0 | 0.0 | 0.00 | 0.00 | 0.00 | 19 | 1019.1 |
| 20260501213553 | 67 | 229 | 6.0 | 0.0 | 0.00 | 0.00 | 0.00 | 20 | 1019.1 |
| 20260501213052 | 67 | 194 | 5.0 | 0.0 | 0.00 | 0.00 | 0.00 | 19 | 1019.1 |
| 20260501212551 | 67 | 200 | 6.0 | 0.0 | 0.00 | 0.00 | 0.00 | 19 | 1019.3 |
| 20260501212053 | 67 | 146 | 7.0 | 0.0 | 0.00 | 0.00 | 0.00 | 19 | 1019.3 |
| 20260501211553 | 66 | 156 | 8.0 | 0.0 | 0.00 | 0.00 | 0.00 | 19 | 1019.4 |
| 20260501211049 | 66 | 167 | 6.0 | 0.0 | 0.00 | 0.00 | 0.00 | 21 | 1019.4 |
| 20260501210549 | 66 | 253 | 9.0 | 0.0 | 0.00 | 0.00 | 0.00 | 18 | 1019.4 |
| 20260501210048 | 66 | 249 | 7.0 | 0.0 | 0.00 | 0.00 | 0.00 | 18 | 1019.5 |
| 20260501205548 | 66 | 198 | 6.0 | 0.0 | 0.00 | 0.00 | 0.00 | 19 | 1019.5 |
| 20260501205047 | 66 | 170 | 9.0 | 0.0 | 0.00 | 0.00 | 0.00 | 19 | 1019.6 |
| 20260501204557 | 66 | 126 | 10.0 | 0.0 | 0.00 | 0.00 | 0.00 | 20 | 1019.8 |
| 20260501204045 | 66 | 184 | 7.0 | 0.0 | 0.00 | 0.00 | 0.00 | 21 | 1019.7 |
| 20260501203545 | 66 | 126 | 4.0 | 0.0 | 0.00 | 0.00 | 0.00 | 20 | 1019.8 |
| 20260501203044 | 65 | 5 | 7.0 | 0.0 | 0.00 | 0.00 | 0.00 | 21 | 1019.7 |
| 20260501202544 | 65 | 177 | 9.0 | 0.0 | 0.00 | 0.00 | 0.00 | 22 | 1019.9 |
| 20260501202042 | 65 | 193 | 8.0 | 0.0 | 0.00 | 0.00 | 0.00 | 22 | 1019.9 |
| 20260501201543 | 65 | 155 | 8.0 | 0.0 | 0.00 | 0.00 | 0.00 | 22 | 1019.9 |
| 20260501201041 | 65 | 202 | 6.0 | 0.0 | 0.00 | 0.00 | 0.00 | 22 | 1020.0 |
| 20260501200540 | 65 | 94 | 6.0 | 0.0 | 0.00 | 0.00 | 0.00 | 21 | 1020.0 |
| 20260501200040 | 65 | 82 | 7.0 | 0.0 | 0.00 | 0.00 | 0.00 | 21 | 1020.0 |
| 20260501195539 | 65 | 134 | 8.0 | 0.0 | 0.00 | 0.00 | 0.00 | 21 | 1020.1 |
| 20260501195039 | 65 | 128 | 9.0 | 0.0 | 0.00 | 0.00 | 0.00 | 22 | 1020.2 |
| 20260501194539 | 65 | 194 | 9.0 | 0.0 | 0.00 | 0.00 | 0.00 | 22 | 1020.3 |
| 20260501194039 | 65 | 136 | 5.0 | 0.0 | 0.00 | 0.00 | 0.00 | 23 | 1020.2 |
| 20260501193538 | 65 | 157 | 6.0 | 0.0 | 0.00 | 0.00 | 0.00 | 21 | 1020.2 |
| 20260501193038 | 64 | 184 | 8.0 | 0.0 | 0.00 | 0.00 | 0.00 | 22 | 1020.4 |
| 20260501192539 | 64 | 115 | 6.0 | 0.0 | 0.00 | 0.00 | 0.00 | 25 | 1020.3 |
| 20260501192041 | 64 | 91 | 7.0 | 0.0 | 0.00 | 0.00 | 0.00 | 25 | 1020.3 |
| 20260501191538 | 63 | 71 | 9.0 | 0.0 | 0.00 | 0.00 | 0.00 | 23 | 1020.3 |
| 20260501191036 | 64 | 223 | 8.0 | 0.0 | 0.00 | 0.00 | 0.00 | 23 | 1020.5 |
| 20260501190537 | 64 | 144 | 6.0 | 0.0 | 0.00 | 0.00 | 0.00 | 23 | 1020.5 |
| 20260501190036 | 63 | 117 | 5.0 | 0.0 | 0.00 | 0.00 | 0.00 | 24 | 1020.5 |
| 20260501185534 | 63 | 141 | 6.0 | 0.0 | 0.00 | 0.00 | 0.00 | 22 | 1020.6 |
| 20260501185034 | 63 | 202 | 10.0 | 0.0 | 0.00 | 0.00 | 0.00 | 23 | 1020.7 |
| 20260501184534 | 63 | 135 | 8.0 | 0.0 | 0.00 | 0.00 | 0.00 | 23 | 1020.8 |
| 20260501184034 | 63 | 191 | 6.0 | 0.0 | 0.00 | 0.00 | 0.00 | 25 | 1020.7 |
| 20260501183540 | 62 | 190 | 8.0 | 0.0 | 0.00 | 0.00 | 0.00 | 24 | 1020.7 |
| 20260501183033 | 63 | 123 | 9.0 | 0.0 | 0.00 | 0.00 | 0.00 | 25 | 1020.8 |
| 20260501182531 | 63 | 130 | 8.0 | 0.0 | 0.00 | 0.00 | 0.00 | 23 | 1020.8 |
| 20260501182030 | 63 | 159 | 8.0 | 0.0 | 0.00 | 0.00 | 0.00 | 24 | 1020.8 |
| 20260501181534 | 63 | 113 | 9.0 | 0.0 | 0.00 | 0.00 | 0.00 | 25 | 1020.9 |
| 20260501181029 | 62 | 142 | 9.0 | 0.0 | 0.00 | 0.00 | 0.00 | 24 | 1020.9 |
| 20260501180529 | 62 | 151 | 8.0 | 0.0 | 0.00 | 0.00 | 0.00 | 24 | 1020.9 |
| 20260501180029 | 63 | 179 | 7.0 | 0.0 | 0.00 | 0.00 | 0.00 | 25 | 1020.9 |
| 20260501175531 | 62 | 165 | 7.0 | 0.0 | 0.00 | 0.00 | 0.00 | 24 | 1020.9 |
| 20260501175027 | 61 | 194 | 5.0 | 0.0 | 0.00 | 0.00 | 0.00 | 24 | 1021.0 |
| 20260501174535 | 61 | 190 | 6.0 | 0.0 | 0.00 | 0.00 | 0.00 | 25 | 1021.0 |
| 20260501174030 | 61 | 101 | 8.0 | 0.0 | 0.00 | 0.00 | 0.00 | 24 | 1021.0 |
| 20260501173526 | 62 | 112 | 8.0 | 0.0 | 0.00 | 0.00 | 0.00 | 25 | 1021.0 |
| 20260501173025 | 61 | 164 | 8.0 | 0.0 | 0.00 | 0.00 | 0.00 | 25 | 1021.1 |
| 20260501172527 | 61 | 134 | 7.0 | 0.0 | 0.00 | 0.00 | 0.00 | 26 | 1021.2 |
| 20260501172026 | 61 | 131 | 6.0 | 0.0 | 0.00 | 0.00 | 0.00 | 26 | 1021.2 |
| 20260501171525 | 61 | 105 | 4.0 | 0.0 | 0.00 | 0.00 | 0.00 | 25 | 1021.2 |